MET'MAP v2.0
soon released !

Expected late october,
this new version will be
more efficient, smarter,
and hosted on a brand new
server x3 powerfull...
...and still free !


Not compatible ?
Try the mobile version !

LOG IN : | Subscribe | Disclaimer | Who is Orbifly ? |
ICAO code :

TAF - LTAP Merzifon AB - 02 Jun 2020 05:07 UTC - Data Source NOAA   


- Airport Elevation : 1758 ft
- IATA code : MZH
- No reported NOTAMs.


LTAP - Merzifon AB

Latest METAR recorded : 2015/08/11 07:50 LTAP 110750Z 03014KT 360V060 9999 FEW040 29/10 Q1010 NOSIG
TAF TAF LTAP
Valid from the 02 at 00:00 until the 03 at 00:00 UTC


012240Z 0200/0224 VRB02KT 9999 SCT040
TEMPO 0200/0204 -SHRA FEW030CB BKN035
BECMG 0206/0209 21012KT
BECMG 0209/0211 -SHRA FEW030CB BKN035
BECMG 0211/0213 03012KT
TEMPO 0212/0216 27020G30KT TSRA
BECMG 0218/0221 VRB02KT

Source NOAA


MET'MAP, your aeronautical weather chart ! - Copyright ORBIFLY December 2007

Programming & Development : Alexandra Zaïnal
Co-Developer : Marc-Olivier Méhu
Technical & hardware support : Manuel Goepfert
Concept & Financing : Baudouin d'Aumeries